Time;durP1;ratioP1;P1;durP2;ratioP2;P2;SDS_P1;SDS_P2;PMS_P1;PMS_P2;Temp;Humidity;BMP_temperature;BMP_pressure;BME280_temperature;BME280_humidity;BME280_pressure;Samples;Min_cycle;Max_cycle;Signal;HPM_P1;HPM_P2
2021/08/19 00:01:35;;;;;;;4.67;3.40;;;;;;;9.63;79.81;95739.94;1793790;80;21003;-59
2021/08/19 00:04:02;;;;;;;4.77;2.90;;;;;;;9.70;79.69;95746.43;1795445;80;21480;-58
2021/08/19 00:06:29;;;;;;;6.37;3.40;;;;;;;9.70;80.07;95745.53;1795539;80;21034;-58
2021/08/19 00:08:55;;;;;;;3.97;3.10;;;;;;;9.72;80.08;95743.75;1795290;80;21006;-58
2021/08/19 00:11:22;;;;;;;4.20;2.90;;;;;;;9.78;79.25;95733.58;1795491;80;21010;-58
2021/08/19 00:13:49;;;;;;;3.93;2.40;;;;;;;9.70;78.40;95741.58;1795379;80;21480;-58
2021/08/19 00:16:15;;;;;;;4.30;2.60;;;;;;;9.63;79.13;95740.80;1795583;80;20983;-58
2021/08/19 00:18:41;;;;;;;2.90;2.40;;;;;;;9.59;79.82;95744.36;1795613;80;21007;-58
2021/08/19 00:21:09;;;;;;;3.87;2.77;;;;;;;9.64;79.71;95741.67;1795493;80;20998;-58
2021/08/19 00:23:36;;;;;;;3.83;2.07;;;;;;;9.69;79.76;95742.03;1795414;80;21067;-58
2021/08/19 00:26:05;;;;;;;3.17;2.13;;;;;;;9.67;79.77;95742.94;1795546;80;20935;-58
2021/08/19 00:28:32;;;;;;;3.67;2.37;;;;;;;9.61;79.80;95753.12;1795336;80;21493;-58
2021/08/19 00:31:00;;;;;;;2.90;2.50;;;;;;;9.59;78.97;95750.08;1795374;80;20967;-58
2021/08/19 00:33:27;;;;;;;2.67;2.17;;;;;;;9.50;79.59;95750.63;1795124;80;21019;-58
2021/08/19 00:35:54;;;;;;;2.93;2.20;;;;;;;9.57;79.47;95748.77;1795448;80;21552;-58
2021/08/19 00:38:22;;;;;;;2.97;2.00;;;;;;;9.61;79.20;95755.75;1795475;80;20994;-59
2021/08/19 00:40:49;;;;;;;3.97;2.30;;;;;;;9.56;79.36;95749.67;1795422;80;21029;-58
2021/08/19 00:43:15;;;;;;;3.10;2.80;;;;;;;9.51;79.77;95749.72;1795292;80;21018;-58
2021/08/19 00:45:44;;;;;;;3.47;2.93;;;;;;;9.53;79.87;95745.31;1795393;80;20983;-58
2021/08/19 00:48:10;;;;;;;3.17;2.67;;;;;;;9.66;78.92;95749.11;1795646;80;21484;-58
2021/08/19 00:50:39;;;;;;;4.60;2.73;;;;;;;9.63;78.44;95748.70;1795529;80;21005;-58
2021/08/19 00:53:06;;;;;;;3.57;3.20;;;;;;;9.64;78.47;95749.58;1795464;80;21548;-58
2021/08/19 00:55:33;;;;;;;3.73;2.73;;;;;;;9.72;78.65;95746.39;1795154;80;20979;-58
2021/08/19 00:58:00;;;;;;;5.87;2.80;;;;;;;9.67;78.76;95750.84;1795449;80;20986;-58
2021/08/19 01:00:26;;;;;;;3.33;3.00;;;;;;;9.66;78.32;95747.80;1792679;80;21469;-58
2021/08/19 01:02:57;;;;;;;3.17;2.40;;;;;;;9.65;77.70;95749.56;1787161;80;20994;-58
2021/08/19 01:05:26;;;;;;;6.17;2.70;;;;;;;9.44;77.69;95743.23;1754153;80;21102;-58
2021/08/19 01:07:52;;;;;;;2.47;2.27;;;;;;;9.26;78.13;95742.55;1786980;80;21489;-57
2021/08/19 01:10:19;;;;;;;3.30;2.53;;;;;;;9.15;79.21;95748.39;1787159;80;21011;-57
2021/08/19 01:12:46;;;;;;;3.67;2.83;;;;;;;9.06;79.31;95745.39;1787448;80;21010;-58
2021/08/19 01:15:14;;;;;;;5.33;3.00;;;;;;;9.10;79.52;95746.25;1786865;80;21054;-57
2021/08/19 01:17:40;;;;;;;4.13;2.97;;;;;;;9.06;80.19;95744.52;1787056;80;20994;-57
2021/08/19 01:20:09;;;;;;;4.67;3.23;;;;;;;8.98;80.52;95747.69;1786805;80;21107;-58
2021/08/19 01:22:36;;;;;;;6.00;2.60;;;;;;;8.98;80.77;95747.69;1787180;80;20990;-57
2021/08/19 01:25:04;;;;;;;5.07;3.30;;;;;;;8.90;80.75;95750.84;1787350;80;20999;-57
2021/08/19 01:27:31;;;;;;;5.03;2.70;;;;;;;8.92;80.50;95749.94;1787033;80;21460;-58
2021/08/19 01:29:57;;;;;;;6.57;2.60;;;;;;;8.93;80.82;95749.04;1786883;80;21007;-57
2021/08/19 01:32:24;;;;;;;3.87;2.40;;;;;;;8.96;81.35;95750.77;1787174;80;21003;-57
2021/08/19 01:34:53;;;;;;;4.63;2.93;;;;;;;8.96;81.58;95749.00;1786814;80;21027;-57
2021/08/19 01:37:20;;;;;;;5.07;2.80;;;;;;;8.97;80.95;95753.81;1786870;80;20979;-58
2021/08/19 01:39:47;;;;;;;2.53;2.27;;;;;;;8.96;80.03;95756.03;1787008;80;21066;-58
2021/08/19 01:42:14;;;;;;;2.40;1.90;;;;;;;8.90;79.90;95749.08;1786975;80;21027;-58
2021/08/19 01:44:41;;;;;;;2.63;2.17;;;;;;;8.83;80.23;95746.07;1787017;80;21476;-57
2021/08/19 01:47:09;;;;;;;3.40;2.37;;;;;;;8.75;80.63;95743.52;1786809;80;21094;-57
2021/08/19 01:49:38;;;;;;;3.37;2.40;;;;;;;8.81;81.28;95744.76;1786777;80;21048;-58
2021/08/19 01:52:06;;;;;;;3.40;2.33;;;;;;;8.89;81.29;95739.42;1787021;80;21046;-58
2021/08/19 01:54:33;;;;;;;2.50;2.23;;;;;;;8.99;81.24;95746.78;1787149;80;21460;-57
2021/08/19 01:56:59;;;;;;;6.63;2.40;;;;;;;8.96;81.02;95743.73;1786692;80;21034;-57
2021/08/19 01:59:28;;;;;;;3.17;2.60;;;;;;;8.99;80.29;95741.52;1786811;80;21103;-57
2021/08/19 02:01:56;;;;;;;3.83;1.90;;;;;;;9.10;79.75;95739.67;1787002;80;21046;-59
2021/08/19 02:04:24;;;;;;;3.40;2.13;;;;;;;9.05;78.75;95743.66;1787278;80;21449;-58
2021/08/19 02:06:51;;;;;;;4.03;2.20;;;;;;;9.04;79.06;95743.20;1787337;80;20982;-57
2021/08/19 02:09:17;;;;;;;3.03;2.23;;;;;;;9.01;79.05;95741.06;1787182;80;20959;-57
2021/08/19 02:11:44;;;;;;;4.87;2.70;;;;;;;8.99;78.88;95737.57;1786712;80;21102;-57
2021/08/19 02:14:12;;;;;;;3.97;2.57;;;;;;;9.01;79.79;95741.94;1787036;80;21042;-57
2021/08/19 02:16:38;;;;;;;5.37;2.67;;;;;;;9.09;79.48;95736.14;1787121;80;21050;-58
2021/08/19 02:19:04;;;;;;;5.53;2.83;;;;;;;9.13;79.25;95740.08;1787529;80;21029;-57
2021/08/19 02:21:31;;;;;;;4.67;3.10;;;;;;;9.16;79.04;95742.67;1786899;80;21039;-57
2021/08/19 02:23:57;;;;;;;5.70;2.60;;;;;;;9.15;78.86;95739.17;1787373;80;20982;-58
2021/08/19 02:26:24;;;;;;;4.63;2.80;;;;;;;9.08;79.59;95747.56;1786975;80;21110;-57
2021/08/19 02:28:51;;;;;;;2.47;2.27;;;;;;;8.93;79.44;95743.78;1787139;80;21488;-58
2021/08/19 02:31:17;;;;;;;2.30;2.00;;;;;;;8.87;79.62;95749.11;1786949;80;21063;-57
2021/08/19 02:33:44;;;;;;;3.40;2.20;;;;;;;8.83;80.79;95747.39;1787129;80;21003;-57
2021/08/19 02:36:10;;;;;;;2.90;2.30;;;;;;;8.75;79.79;95750.54;1787174;80;21054;-57
2021/08/19 02:38:37;;;;;;;2.63;2.10;;;;;;;8.68;79.55;95754.97;1787142;80;20999;-57
2021/08/19 02:41:03;;;;;;;3.63;2.23;;;;;;;8.56;79.78;95754.62;1787438;80;21022;-57
2021/08/19 02:43:30;;;;;;;4.00;2.57;;;;;;;8.50;80.18;95752.50;1787411;80;21038;-57
2021/08/19 02:45:57;;;;;;;3.83;2.57;;;;;;;8.51;80.55;95749.84;1786789;80;21054;-57
2021/08/19 02:48:23;;;;;;;4.50;2.70;;;;;;;8.49;81.48;95752.05;1787533;80;21006;-58
2021/08/19 02:50:50;;;;;;;3.63;2.80;;;;;;;8.47;81.50;95752.09;1787072;80;21065;-57
2021/08/19 02:53:16;;;;;;;3.53;2.53;;;;;;;8.49;81.41;95749.42;1787037;80;21030;-57
2021/08/19 02:55:42;;;;;;;2.87;2.27;;;;;;;8.48;80.95;95749.00;1787266;80;21003;-57
2021/08/19 02:58:09;;;;;;;3.23;2.17;;;;;;;8.47;81.93;95757.34;1787125;80;21078;-57
2021/08/19 03:00:35;;;;;;;3.57;2.03;;;;;;;8.41;81.05;95746.41;1786615;80;20995;-58
2021/08/19 03:03:02;;;;;;;5.00;2.33;;;;;;;8.34;80.76;95750.38;1787327;80;21489;-57
2021/08/19 03:05:28;;;;;;;2.03;1.83;;;;;;;8.32;80.92;95753.04;1787458;80;21003;-57
2021/08/19 03:07:54;;;;;;;2.60;1.90;;;;;;;8.32;81.14;95757.43;1787204;80;21476;-57
2021/08/19 03:10:21;;;;;;;2.60;2.00;;;;;;;8.30;81.26;95748.22;1787294;80;20999;-57
2021/08/19 03:12:48;;;;;;;2.53;2.10;;;;;;;8.30;81.34;95757.42;1787211;80;20964;-58
2021/08/19 03:15:14;;;;;;;3.40;2.33;;;;;;;8.22;81.77;95756.61;1787116;80;21050;-57
2021/08/19 03:17:41;;;;;;;3.10;2.37;;;;;;;8.30;81.89;95759.19;1787283;80;21409;-57
2021/08/19 03:20:10;;;;;;;2.63;1.97;;;;;;;8.38;81.95;95761.31;1786801;80;21110;-57
2021/08/19 03:22:38;;;;;;;3.97;2.00;;;;;;;8.42;81.32;95773.15;1787173;80;20987;-57
2021/08/19 03:25:08;;;;;;;5.63;2.23;;;;;;;8.48;80.94;95770.05;1787064;80;21492;-58
2021/08/19 03:27:36;;;;;;;3.73;2.70;;;;;;;8.59;80.58;95773.03;1787112;80;21512;-57
2021/08/19 03:30:04;;;;;;;5.47;2.60;;;;;;;8.67;80.62;95772.97;1786513;80;21022;-58
2021/08/19 03:32:31;;;;;;;3.93;2.30;;;;;;;8.74;80.09;95776.40;1787377;80;21011;-57
2021/08/19 03:34:57;;;;;;;2.63;1.80;;;;;;;8.77;79.77;95778.99;1787361;80;20952;-57
2021/08/19 03:37:26;;;;;;;1.90;1.70;;;;;;;8.73;78.60;95775.98;1787343;80;21034;-57
2021/08/19 03:39:52;;;;;;;3.83;2.47;;;;;;;8.62;78.29;95781.34;1787553;80;21030;-58
2021/08/19 03:42:19;;;;;;;4.23;2.50;;;;;;;8.57;79.35;95784.00;1787375;80;21002;-58
2021/08/19 03:44:45;;;;;;;3.43;3.10;;;;;;;8.61;80.20;95783.52;1786726;80;21019;-57
2021/08/19 03:47:12;;;;;;;4.27;3.07;;;;;;;8.54;80.70;95787.08;1787346;80;21023;-57
2021/08/19 03:49:38;;;;;;;3.97;3.03;;;;;;;8.45;80.83;95778.37;1786929;80;21090;-57
2021/08/19 03:52:06;;;;;;;4.03;2.93;;;;;;;8.49;80.58;95777.91;1787220;80;21480;-57
2021/08/19 03:54:33;;;;;;;3.40;2.60;;;;;;;8.49;80.67;95782.30;1787140;80;21015;-58
2021/08/19 03:56:59;;;;;;;2.40;2.10;;;;;;;8.36;80.13;95785.42;1787076;80;20983;-57
2021/08/19 03:59:26;;;;;;;2.90;2.20;;;;;;;8.22;80.43;95784.22;1787087;80;21536;-58
2021/08/19 04:01:52;;;;;;;4.33;3.10;;;;;;;8.15;80.98;95791.25;1786851;80;21126;-58
2021/08/19 04:04:19;;;;;;;4.10;3.50;;;;;;;8.13;81.52;95785.58;1786874;80;20983;-57
2021/08/19 04:06:45;;;;;;;4.83;2.93;;;;;;;8.19;81.58;95778.54;1787230;80;21485;-57
2021/08/19 04:09:12;;;;;;;4.43;2.67;;;;;;;8.26;81.34;95783.73;1786776;80;21058;-58
2021/08/19 04:11:38;;;;;;;4.77;3.07;;;;;;;8.33;81.35;95785.00;1787175;80;20955;-58
2021/08/19 04:14:05;;;;;;;2.67;2.43;;;;;;;8.39;81.28;95782.38;1787072;80;21035;-57
2021/08/19 04:16:31;;;;;;;3.00;2.53;;;;;;;8.45;81.09;95786.27;1786719;80;20987;-58
2021/08/19 04:18:58;;;;;;;4.83;2.53;;;;;;;8.51;81.18;95790.60;1786994;80;20980;-57
2021/08/19 04:21:25;;;;;;;4.00;3.20;;;;;;;8.48;81.65;95782.74;1787225;80;21022;-57
2021/08/19 04:23:52;;;;;;;6.13;3.97;;;;;;;8.55;82.16;95788.84;1786592;80;21022;-58
2021/08/19 04:26:18;;;;;;;5.77;3.20;;;;;;;8.70;82.11;95793.11;1787330;80;20982;-57
2021/08/19 04:28:44;;;;;;;4.03;3.00;;;;;;;8.78;82.62;95792.15;1786822;80;21160;-57
2021/08/19 04:31:11;;;;;;;3.33;2.43;;;;;;;8.87;81.86;95796.48;1787194;80;21007;-57
2021/08/19 04:33:37;;;;;;;3.70;2.80;;;;;;;8.93;81.44;95794.23;1786847;80;21067;-58
2021/08/19 04:36:04;;;;;;;3.87;2.93;;;;;;;8.94;81.42;95799.91;1787219;80;21022;-57
2021/08/19 04:38:33;;;;;;;4.20;3.33;;;;;;;8.93;81.82;95789.83;1787165;80;20979;-58
2021/08/19 04:41:00;;;;;;;6.60;3.60;;;;;;;8.97;82.47;95787.61;1786794;80;21023;-58
2021/08/19 04:43:27;;;;;;;5.00;3.30;;;;;;;9.14;83.13;95784.80;1787164;80;20987;-58
2021/08/19 04:45:54;;;;;;;6.53;3.07;;;;;;;9.40;83.06;95781.01;1786376;80;21060;-58
2021/08/19 04:48:21;;;;;;;5.50;3.07;;;;;;;9.62;82.51;95782.97;1787310;80;20975;-58
2021/08/19 04:50:47;;;;;;;4.77;3.00;;;;;;;9.85;81.97;95776.98;1787181;80;21017;-58
2021/08/19 04:53:14;;;;;;;5.37;3.27;;;;;;;10.06;81.41;95770.55;1787131;80;21011;-58
2021/08/19 04:55:41;;;;;;;4.97;2.93;;;;;;;10.24;81.13;95764.59;1787173;80;21488;-58
2021/08/19 04:58:07;;;;;;;4.80;3.37;;;;;;;10.43;80.67;95770.48;1787040;80;20978;-58
2021/08/19 05:00:34;;;;;;;5.53;3.10;;;;;;;10.57;80.21;95776.42;1786630;80;21539;-58
2021/08/19 05:03:00;;;;;;;4.30;3.33;;;;;;;10.73;79.73;95781.00;1794808;80;20999;-58
2021/08/19 05:05:27;;;;;;;5.10;3.13;;;;;;;10.93;79.65;95783.31;1795199;80;21142;-59
2021/08/19 05:07:54;;;;;;;4.43;2.93;;;;;;;11.04;79.05;95781.38;1795406;80;21080;-58
2021/08/19 05:10:20;;;;;;;7.73;4.40;;;;;;;11.17;79.08;95784.22;1795253;80;20994;-58
2021/08/19 05:12:47;;;;;;;5.17;3.67;;;;;;;11.32;78.67;95776.47;1795434;80;21054;-58
2021/08/19 05:15:14;;;;;;;4.93;3.47;;;;;;;11.34;78.05;95776.42;1795410;80;20971;-58
2021/08/19 05:17:40;;;;;;;5.83;3.33;;;;;;;11.42;77.85;95772.75;1795382;80;20998;-58
2021/08/19 05:20:08;;;;;;;4.33;3.37;;;;;;;11.46;77.15;95774.87;1794943;80;21520;-58
2021/08/19 05:22:36;;;;;;;4.10;3.70;;;;;;;11.54;77.50;95771.66;1795411;80;21462;-58
2021/08/19 05:25:03;;;;;;;5.17;3.53;;;;;;;11.65;77.49;95775.40;1795444;80;20967;-58
2021/08/19 05:27:30;;;;;;;5.17;3.33;;;;;;;11.76;76.84;95778.69;1794834;80;21069;-58
2021/08/19 05:29:56;;;;;;;5.07;3.40;;;;;;;11.84;76.39;95780.74;1795374;80;21028;-58
2021/08/19 05:32:23;;;;;;;4.55;3.42;;;;;;;11.89;76.38;95776.69;1795246;80;21022;-58
2021/08/19 05:34:50;;;;;;;5.13;3.80;;;;;;;11.99;76.55;95778.69;1795464;80;20975;-58
2021/08/19 05:37:16;;;;;;;5.33;3.80;;;;;;;12.05;76.42;95778.58;1795655;80;20992;-58
2021/08/19 05:39:43;;;;;;;4.28;3.30;;;;;;;12.11;76.61;95776.66;1795595;80;21034;-58
2021/08/19 05:42:09;;;;;;;4.62;3.22;;;;;;;12.18;76.07;95772.57;1795308;80;21003;-58
2021/08/19 05:44:37;;;;;;;4.85;3.72;;;;;;;12.30;75.80;95775.81;1795790;80;21465;-58
2021/08/19 05:47:06;;;;;;;4.05;3.27;;;;;;;12.41;74.43;95774.70;1794743;80;21027;-60
2021/08/19 05:49:44;;;;;;;5.70;3.67;;;;;;;12.50;74.23;95779.33;1794893;80;21018;-58
2021/08/19 05:52:12;;;;;;;4.03;2.83;;;;;;;12.62;74.77;95775.50;1795481;80;21057;-58
2021/08/19 05:54:39;;;;;;;6.55;3.65;;;;;;;12.73;74.45;95778.78;1795403;80;21433;-59
2021/08/19 05:57:05;;;;;;;4.58;3.67;;;;;;;12.90;75.71;95766.46;1795590;80;21026;-58
2021/08/19 05:59:32;;;;;;;4.75;3.70;;;;;;;13.06;75.73;95764.29;1795068;80;21089;-58
2021/08/19 06:01:59;;;;;;;4.10;3.20;;;;;;;13.16;75.42;95760.95;1795097;80;21014;-59
2021/08/19 06:04:25;;;;;;;5.97;3.40;;;;;;;13.25;74.66;95758.04;1795429;80;20978;-59
2021/08/19 06:06:51;;;;;;;4.30;3.60;;;;;;;13.37;74.18;95752.91;1795083;80;21023;-59
2021/08/19 06:09:18;;;;;;;4.35;3.42;;;;;;;13.50;74.20;95755.63;1795243;80;21082;-59
2021/08/19 06:11:44;;;;;;;6.67;3.25;;;;;;;13.66;74.36;95753.45;1795698;80;21062;-59
2021/08/19 06:14:11;;;;;;;5.55;3.22;;;;;;;13.83;74.36;95752.52;1795676;80;20967;-58
2021/08/19 06:16:37;;;;;;;5.45;3.10;;;;;;;13.97;73.83;95753.89;1795287;80;21059;-59
2021/08/19 06:19:04;;;;;;;5.90;3.20;;;;;;;14.11;73.49;95758.34;1795214;80;21029;-59
2021/08/19 06:21:31;;;;;;;6.70;3.40;;;;;;;14.24;73.29;95745.57;1795439;80;21018;-58
2021/08/19 06:23:57;;;;;;;4.80;2.90;;;;;;;14.34;72.28;95743.05;1795375;80;20970;-59
2021/08/19 06:26:24;;;;;;;7.70;3.50;;;;;;;14.49;71.74;95745.22;1795520;80;21436;-59
2021/08/19 06:28:50;;;;;;;3.72;2.80;;;;;;;14.67;71.94;95742.93;1795194;80;20987;-58
2021/08/19 06:31:17;;;;;;;5.25;2.80;;;;;;;14.83;72.63;95739.30;1794630;80;21074;-58
2021/08/19 06:33:44;;;;;;;5.10;3.17;;;;;;;15.03;72.07;95731.53;1795442;80;21002;-59
2021/08/19 06:36:12;;;;;;;5.40;3.02;;;;;;;15.21;70.04;95734.48;1795445;80;21025;-59
2021/08/19 06:38:38;;;;;;;6.83;2.90;;;;;;;15.40;69.37;95728.09;1795449;80;21459;-59
2021/08/19 06:41:05;;;;;;;6.25;3.12;;;;;;;15.60;69.82;95732.23;1795664;80;21034;-58
2021/08/19 06:43:31;;;;;;;5.53;2.77;;;;;;;15.83;70.18;95734.08;1794908;80;21153;-59
2021/08/19 06:45:58;;;;;;;3.85;3.25;;;;;;;16.05;69.09;95730.59;1794935;80;21026;-59
2021/08/19 06:48:24;;;;;;;4.53;3.98;;;;;;;16.26;68.68;95728.45;1795056;80;21046;-59
2021/08/19 06:50:51;;;;;;;4.75;3.40;;;;;;;16.44;68.33;95729.06;1794684;80;21006;-58
2021/08/19 06:53:18;;;;;;;6.65;3.98;;;;;;;16.64;68.13;95728.73;1795538;80;21483;-58
2021/08/19 06:55:45;;;;;;;4.90;3.70;;;;;;;16.83;67.93;95731.53;1795507;80;21496;-59
2021/08/19 06:58:11;;;;;;;9.45;3.65;;;;;;;17.01;67.61;95728.58;1795298;80;20998;-59
2021/08/19 07:00:37;;;;;;;5.30;3.47;;;;;;;17.17;66.12;95724.34;1795122;80;21420;-59
2021/08/19 07:03:04;;;;;;;4.00;2.90;;;;;;;17.29;65.16;95722.50;1789525;80;21033;-59
2021/08/19 07:05:30;;;;;;;3.72;2.52;;;;;;;17.43;63.61;95723.22;1787060;80;20963;-59
2021/08/19 07:07:59;;;;;;;5.35;2.50;;;;;;;17.48;57.48;95712.35;1787232;80;20991;-59
2021/08/19 07:10:26;;;;;;;5.87;2.90;;;;;;;17.48;57.48;95712.35;1787515;80;21015;-59
2021/08/19 07:12:52;;;;;;;2.92;1.98;;;;;;;17.61;56.29;95722.02;1786808;80;21058;-59
2021/08/19 07:15:19;;;;;;;4.20;2.50;;;;;;;17.73;56.02;95721.47;1787332;80;20999;-59
2021/08/19 07:17:45;;;;;;;4.37;2.42;;;;;;;17.87;56.90;95717.77;1787187;80;21544;-59
2021/08/19 07:20:12;;;;;;;5.20;2.60;;;;;;;18.05;55.57;95729.88;1786795;80;21070;-59
2021/08/19 07:22:39;;;;;;;5.50;2.62;;;;;;;18.17;53.40;95726.64;1787361;80;20971;-59
2021/08/19 07:25:07;;;;;;;5.53;2.83;;;;;;;18.21;51.02;95726.02;1787298;80;20967;-59
2021/08/19 07:27:33;;;;;;;4.45;2.85;;;;;;;18.37;54.32;95729.72;1787103;80;21053;-59
2021/08/19 07:29:59;;;;;;;4.72;2.70;;;;;;;18.53;53.03;95721.36;1787326;80;21006;-59
2021/08/19 07:32:26;;;;;;;9.85;3.20;;;;;;;18.68;52.97;95714.89;1786644;80;21007;-59
2021/08/19 07:34:52;;;;;;;10.43;2.60;;;;;;;18.87;54.05;95716.20;1787442;80;20960;-59
2021/08/19 07:37:19;;;;;;;5.60;2.77;;;;;;;18.93;48.85;95715.45;1787287;80;21437;-59
2021/08/19 07:39:45;;;;;;;4.37;3.00;;;;;;;19.00;51.42;95714.68;1786781;80;21030;-59
2021/08/19 07:42:12;;;;;;;4.42;2.70;;;;;;;19.14;50.18;95712.64;1787217;80;21465;-59
2021/08/19 07:44:38;;;;;;;5.20;2.75;;;;;;;19.23;49.96;95714.38;1787217;80;21014;-59
2021/08/19 07:47:05;;;;;;;4.62;2.62;;;;;;;19.38;49.84;95713.21;1786664;80;21528;-59
2021/08/19 07:49:32;;;;;;;4.40;2.37;;;;;;;19.49;49.20;95712.65;1787331;80;21007;-59
2021/08/19 07:51:58;;;;;;;7.08;2.77;;;;;;;19.61;49.04;95714.69;1787089;80;21476;-59
2021/08/19 07:54:25;;;;;;;16.27;2.85;;;;;;;19.72;47.81;95712.33;1753026;80;20995;-59
2021/08/19 07:56:51;;;;;;;9.75;2.72;;;;;;;19.85;46.69;95709.39;1787160;80;21002;-59
2021/08/19 07:59:18;;;;;;;6.47;2.45;;;;;;;19.93;47.18;95715.67;1786866;80;21023;-59
2021/08/19 08:01:45;;;;;;;6.80;2.62;;;;;;;20.03;46.79;95714.27;1787195;80;21592;-60
2021/08/19 08:04:11;;;;;;;5.22;2.67;;;;;;;20.18;45.94;95721.05;1795627;80;21054;-58
2021/08/19 08:06:40;;;;;;;4.70;2.52;;;;;;;20.39;45.34;95719.89;1795556;80;21014;-59
2021/08/19 08:09:07;;;;;;;4.28;2.27;;;;;;;20.48;44.62;95713.14;1795260;80;21496;-59
2021/08/19 08:11:34;;;;;;;4.42;2.45;;;;;;;20.58;44.01;95713.05;1795275;80;21046;-59
2021/08/19 08:14:02;;;;;;;5.35;2.87;;;;;;;20.69;44.02;95714.66;1795486;80;21054;-59
2021/08/19 08:16:29;;;;;;;4.87;2.22;;;;;;;20.83;44.09;95718.36;1795058;80;20963;-59
2021/08/19 08:18:55;;;;;;;4.62;2.08;;;;;;;20.96;43.68;95718.04;1795301;80;21523;-59
2021/08/19 08:21:22;;;;;;;6.60;2.15;;;;;;;21.10;42.73;95711.41;1795597;80;21504;-60
2021/08/19 08:23:50;;;;;;;4.47;2.40;;;;;;;21.20;43.13;95715.77;1795181;80;21082;-59
2021/08/19 08:26:17;;;;;;;5.22;2.62;;;;;;;21.26;41.86;95709.16;1795553;80;21050;-59
2021/08/19 08:28:43;;;;;;;3.47;2.30;;;;;;;21.35;42.74;95708.63;1795267;80;21625;-59
2021/08/19 08:31:10;;;;;;;3.50;2.45;;;;;;;21.43;41.18;95713.09;1795074;80;21050;-59
2021/08/19 08:33:37;;;;;;;5.97;2.42;;;;;;;21.44;42.15;95716.63;1795475;80;20979;-59
2021/08/19 08:36:04;;;;;;;4.15;2.40;;;;;;;21.53;42.42;95714.27;1795314;80;21580;-59
2021/08/19 08:38:31;;;;;;;4.42;2.52;;;;;;;21.69;43.34;95710.66;1795405;80;21018;-59
2021/08/19 08:40:58;;;;;;;3.85;2.02;;;;;;;21.83;42.53;95710.20;1795236;80;21575;-59
2021/08/19 08:43:25;;;;;;;4.62;2.40;;;;;;;21.95;41.48;95714.45;1795459;80;21050;-59
2021/08/19 08:45:54;;;;;;;5.08;2.52;;;;;;;22.17;41.65;95715.30;1795518;80;21481;-59
2021/08/19 08:48:26;;;;;;;4.80;2.50;;;;;;;22.28;40.48;95720.06;1795300;80;21026;-59
2021/08/19 08:50:59;;;;;;;8.20;2.95;;;;;;;22.29;40.00;95717.26;1795604;80;21520;-59
2021/08/19 08:53:26;;;;;;;2.95;2.42;;;;;;;22.19;37.89;95716.08;1795680;80;21038;-59
2021/08/19 08:55:53;;;;;;;3.67;2.47;;;;;;;22.39;40.86;95721.09;1795626;80;21071;-59
2021/08/19 08:58:20;;;;;;;4.42;2.12;;;;;;;22.64;40.76;95714.15;1795197;80;21066;-59
2021/08/19 09:00:48;;;;;;;3.55;2.70;;;;;;;22.74;40.32;95711.25;1795582;80;21030;-59
2021/08/19 09:03:17;;;;;;;6.30;3.00;;;;;;;22.89;39.29;95713.42;1795054;80;21030;-59
2021/08/19 09:05:49;;;;;;;4.15;2.37;;;;;;;23.02;38.50;95717.05;1795383;80;21337;-59
2021/08/19 09:08:24;;;;;;;2.72;2.22;;;;;;;23.15;39.52;95713.55;1795624;80;21041;-59
2021/08/19 09:10:56;;;;;;;4.90;2.52;;;;;;;23.16;37.57;95712.58;1794969;80;21298;-59
2021/08/19 09:13:29;;;;;;;4.70;2.65;;;;;;;23.23;36.64;95714.76;1794889;80;21045;-59
2021/08/19 09:16:15;;;;;;;3.10;2.33;;;;;;;23.29;38.20;95713.51;1795501;80;21026;-59
2021/08/19 09:18:43;;;;;;;5.83;3.45;;;;;;;23.54;38.66;95714.91;1794989;80;21010;-58
2021/08/19 09:21:24;;;;;;;4.12;2.45;;;;;;;23.73;36.82;95712.33;1795328;80;21055;-58
2021/08/19 09:24:24;;;;;;;4.08;3.20;;;;;;;23.80;37.53;95708.25;1795462;80;20986;-58
2021/08/19 09:26:53;;;;;;;2.95;2.30;;;;;;;23.97;37.14;95705.73;1795340;80;21053;-58
2021/08/19 09:29:29;;;;;;;4.20;2.85;;;;;;;24.15;36.28;95704.92;1795411;80;21006;-59
2021/08/19 09:32:15;;;;;;;3.27;2.05;;;;;;;24.32;36.49;95706.43;1764126;80;21500;-59
2021/08/19 09:34:45;;;;;;;6.03;2.22;;;;;;;24.53;35.01;95701.35;1794541;80;21497;-59
2021/08/19 09:37:15;;;;;;;3.85;2.22;;;;;;;24.74;35.84;95693.03;1795389;80;21473;-59
2021/08/19 09:39:45;;;;;;;4.40;2.62;;;;;;;24.90;35.19;95691.93;1795160;80;21006;-59
2021/08/19 09:42:14;;;;;;;2.95;2.65;;;;;;;25.00;33.88;95691.62;1795511;80;21015;-59
2021/08/19 09:44:44;;;;;;;3.27;2.50;;;;;;;25.01;33.77;95691.48;1795409;80;20994;-59
2021/08/19 09:47:31;;;;;;;3.85;2.47;;;;;;;25.01;32.68;95690.62;1795211;80;21010;-59
2021/08/19 09:50:16;;;;;;;3.40;2.47;;;;;;;25.33;34.54;95691.45;1795257;80;21465;-59
2021/08/19 09:52:47;;;;;;;5.25;2.90;;;;;;;25.69;34.52;95683.70;1779489;80;28625;-59
2021/08/19 09:55:29;;;;;;;6.05;2.77;;;;;;;26.10;32.96;95689.09;1795400;80;21535;-59
2021/08/19 09:57:58;;;;;;;4.10;2.67;;;;;;;26.04;33.30;95692.30;1795473;80;20999;-59
2021/08/19 10:00:31;;;;;;;4.35;2.47;;;;;;;26.03;32.44;95694.61;1795130;80;21030;-59
2021/08/19 10:02:59;;;;;;;3.22;2.50;;;;;;;25.75;32.70;95698.08;1794932;80;21041;-59
2021/08/19 10:05:26;;;;;;;3.62;2.62;;;;;;;25.34;34.07;95696.71;1795129;80;21022;-59
2021/08/19 10:07:53;;;;;;;5.28;2.65;;;;;;;24.69;35.14;95703.30;1795311;80;21010;-59
2021/08/19 10:10:20;;;;;;;4.03;2.75;;;;;;;24.48;35.30;95708.42;1795303;80;21098;-59
2021/08/19 10:12:48;;;;;;;3.70;2.55;;;;;;;24.63;36.04;95701.55;1795352;80;21057;-59
2021/08/19 10:15:15;;;;;;;2.80;2.50;;;;;;;24.80;35.01;95696.64;1794899;80;21053;-59
2021/08/19 10:17:49;;;;;;;3.62;2.62;;;;;;;25.24;34.46;95693.84;1795497;80;21042;-59
2021/08/19 10:20:33;;;;;;;4.12;2.55;;;;;;;25.50;32.93;95696.39;1794608;80;21003;-59
2021/08/19 10:23:01;;;;;;;4.58;2.65;;;;;;;25.78;33.30;95692.92;1794320;80;20983;-59
2021/08/19 10:25:27;;;;;;;4.33;2.58;;;;;;;25.59;32.79;95694.35;1795454;80;21066;-59
2021/08/19 10:28:18;;;;;;;6.33;2.85;;;;;;;25.02;34.53;95699.98;1795316;80;20981;-59
2021/08/19 10:30:55;;;;;;;4.22;2.60;;;;;;;24.88;35.22;95696.57;1795603;80;20967;-59
2021/08/19 10:33:42;;;;;;;8.85;2.50;;;;;;;24.73;35.48;95699.41;1795069;80;21492;-59
2021/08/19 10:36:17;;;;;;;5.50;3.05;;;;;;;24.80;35.90;95695.79;1795363;80;21014;-59
2021/08/19 10:38:43;;;;;;;3.05;2.40;;;;;;;24.80;35.70;95695.30;1795795;80;20991;-59
2021/08/19 10:41:35;;;;;;;5.60;2.37;;;;;;;24.82;35.33;95699.21;1795332;80;21043;-59
2021/08/19 10:44:08;;;;;;;3.90;2.72;;;;;;;24.66;33.17;95696.78;1795322;80;21114;-59
2021/08/19 10:46:41;;;;;;;8.95;2.67;;;;;;;24.47;34.99;95705.36;1795695;80;21778;-59
2021/08/19 10:49:10;;;;;;;12.35;2.90;;;;;;;24.30;35.16;95709.72;1795419;80;21572;-59
2021/08/19 10:51:37;;;;;;;5.33;2.70;;;;;;;24.58;35.46;95701.39;1794206;80;20986;-59
2021/08/19 10:54:09;;;;;;;3.87;2.55;;;;;;;25.22;35.41;95694.47;1795575;80;20935;-59
2021/08/19 10:56:45;;;;;;;3.17;2.65;;;;;;;25.71;34.53;95683.59;1784800;80;21058;-59
2021/08/19 10:59:32;;;;;;;4.95;2.30;;;;;;;26.00;32.16;95686.25;1795532;80;21512;-59
2021/08/19 11:02:00;;;;;;;3.77;2.47;;;;;;;26.27;32.32;95689.12;1795609;80;21006;-59
2021/08/19 11:04:43;;;;;;;6.35;2.70;;;;;;;26.03;31.04;95688.73;1794924;80;21015;-59
2021/08/19 11:07:10;;;;;;;3.75;2.30;;;;;;;25.82;32.38;95692.57;1795040;80;21059;-59
2021/08/19 11:09:37;;;;;;;4.65;2.90;;;;;;;25.53;32.57;95692.59;1763818;80;21038;-59
2021/08/19 11:12:06;;;;;;;3.77;2.65;;;;;;;25.00;33.88;95692.97;1795478;80;21488;-59
2021/08/19 11:14:33;;;;;;;3.83;2.67;;;;;;;24.92;32.94;95692.19;1795555;80;21500;-59
2021/08/19 11:17:01;;;;;;;4.62;3.20;;;;;;;24.86;34.14;95688.58;1795415;80;20967;-59
2021/08/19 11:19:31;;;;;;;3.72;2.70;;;;;;;25.21;33.47;95687.82;1795545;80;21520;-59
2021/08/19 11:22:01;;;;;;;6.22;2.65;;;;;;;25.45;33.89;95679.68;1795651;80;21007;-59
2021/08/19 11:24:31;;;;;;;3.10;2.58;;;;;;;25.58;33.20;95680.98;1795280;80;21046;-59
2021/08/19 11:27:06;;;;;;;7.20;2.75;;;;;;;25.63;32.53;95667.98;1795495;80;21015;-59
2021/08/19 11:29:40;;;;;;;3.25;2.47;;;;;;;25.49;32.40;95673.08;1795269;80;21066;-59
2021/08/19 11:32:10;;;;;;;3.33;2.40;;;;;;;25.70;33.02;95675.95;1764347;80;21393;-60
2021/08/19 11:34:39;;;;;;;5.42;2.50;;;;;;;25.79;33.05;95678.45;1795536;80;20994;-59
2021/08/19 11:37:07;;;;;;;3.72;2.50;;;;;;;26.05;31.31;95687.24;1795608;80;21018;-59
2021/08/19 11:39:33;;;;;;;4.30;3.90;;;;;;;26.25;31.21;95676.20;1795603;80;20995;-59
2021/08/19 11:42:04;;;;;;;5.90;4.55;;;;;;;26.65;29.80;95671.67;1795302;80;21090;-59